createdAt,value
2023-02-14T00:02:20.848Z,14.82
2023-02-14T00:04:48.345Z,18.10
2023-02-14T00:07:15.665Z,16.92
2023-02-14T00:09:42.870Z,15.55
2023-02-14T00:12:10.053Z,15.73
2023-02-14T00:14:55.674Z,16.58
2023-02-14T00:17:22.879Z,15.13
2023-02-14T00:19:50.494Z,15.18
2023-02-14T00:22:17.746Z,16.67
2023-02-14T00:24:44.900Z,16.45
2023-02-14T00:27:12.043Z,15.07
2023-02-14T00:29:39.247Z,16.08
2023-02-14T00:32:06.486Z,15.63
2023-02-14T00:34:36.410Z,15.57
2023-02-14T00:37:04.311Z,14.68
2023-02-14T00:39:31.517Z,14.50
2023-02-14T00:41:58.738Z,15.50
2023-02-14T00:44:26.066Z,15.38
2023-02-14T00:46:53.278Z,16.90
2023-02-14T00:49:20.480Z,16.55
2023-02-14T00:51:47.603Z,15.82
2023-02-14T00:54:14.693Z,14.93
2023-02-14T00:56:42.031Z,15.52
2023-02-14T00:59:09.885Z,14.32
2023-02-14T01:01:37.058Z,16.52
2023-02-14T01:04:04.584Z,15.90
2023-02-14T01:06:31.825Z,15.98
2023-02-14T01:08:59.051Z,16.20
2023-02-14T01:11:28.147Z,15.52
2023-02-14T01:13:57.692Z,16.17
2023-02-14T01:16:26.349Z,16.55
2023-02-14T01:18:55.723Z,13.85
2023-02-14T01:21:27.604Z,15.32
2023-02-14T01:23:57.457Z,16.20
2023-02-14T01:26:25.238Z,15.40
2023-02-14T01:28:52.946Z,15.60
2023-02-14T01:31:22.327Z,16.65
2023-02-14T01:33:50.338Z,15.07
2023-02-14T01:36:22.497Z,16.13
2023-02-14T01:38:52.164Z,15.50
2023-02-14T01:41:19.781Z,15.20
2023-02-14T01:43:58.234Z,16.15
2023-02-14T01:46:26.509Z,15.75
2023-02-14T01:48:55.824Z,16.02
2023-02-14T01:51:23.301Z,14.15
2023-02-14T01:53:50.867Z,15.60
2023-02-14T01:56:20.652Z,15.13
2023-02-14T01:58:52.654Z,15.07
2023-02-14T02:01:20.362Z,16.35
2023-02-14T02:04:00.199Z,15.57
2023-02-14T02:06:31.770Z,15.85
2023-02-14T02:09:04.034Z,15.35
2023-02-14T02:11:31.398Z,16.20
2023-02-14T02:13:58.605Z,15.00
2023-02-14T02:16:25.775Z,15.77
2023-02-14T02:19:11.822Z,15.80
2023-02-14T02:21:51.067Z,16.58
2023-02-14T02:24:26.953Z,16.75
2023-02-14T02:27:26.530Z,18.33
2023-02-14T02:30:09.356Z,16.02
2023-02-14T02:32:59.234Z,16.45
2023-02-14T02:35:41.774Z,15.13
2023-02-14T02:38:08.892Z,14.07
2023-02-14T02:40:59.622Z,17.75
2023-02-14T02:43:26.964Z,16.15
2023-02-14T02:46:19.712Z,17.08
2023-02-14T02:48:57.123Z,16.80
2023-02-14T02:51:56.133Z,16.48
2023-02-14T02:54:43.552Z,17.60
2023-02-14T02:57:15.863Z,17.33
2023-02-14T02:59:45.238Z,16.83
2023-02-14T03:02:12.354Z,16.20
2023-02-14T03:04:56.295Z,16.15
2023-02-14T03:07:36.611Z,15.43
2023-02-14T03:10:25.775Z,17.48
2023-02-14T03:13:13.033Z,17.27
2023-02-14T03:15:52.897Z,17.08
2023-02-14T03:18:41.752Z,20.05
2023-02-14T03:21:11.896Z,19.50
2023-02-14T03:23:42.615Z,20.17
2023-02-14T03:26:15.948Z,19.42
2023-02-14T03:28:59.045Z,22.25
2023-02-14T03:31:33.296Z,20.13
2023-02-14T03:34:03.168Z,21.30
2023-02-14T03:36:33.156Z,22.63
2023-02-14T03:39:05.938Z,24.15
2023-02-14T03:41:38.273Z,22.80
2023-02-14T03:44:07.891Z,20.95
2023-02-14T03:46:44.669Z,18.65
2023-02-14T03:49:14.944Z,18.70
2023-02-14T03:51:43.109Z,17.77
2023-02-14T03:54:11.729Z,19.13
2023-02-14T03:56:38.899Z,18.13
2023-02-14T03:59:16.389Z,19.92
2023-02-14T04:01:47.746Z,19.50
2023-02-14T04:04:16.066Z,16.10
2023-02-14T04:06:43.401Z,23.58
2023-02-14T04:09:10.580Z,22.98
2023-02-14T04:11:38.514Z,21.08
2023-02-14T04:14:05.665Z,22.55
2023-02-14T04:16:52.984Z,24.33
2023-02-14T04:19:22.850Z,22.90
2023-02-14T04:21:50.678Z,20.00
2023-02-14T04:24:18.026Z,20.42
2023-02-14T04:26:54.140Z,17.95
2023-02-14T04:29:21.803Z,20.23
2023-02-14T04:31:49.287Z,18.60
2023-02-14T04:34:16.611Z,17.55
2023-02-14T04:36:43.790Z,17.65
2023-02-14T04:39:11.015Z,15.48
2023-02-14T04:41:38.146Z,18.38
2023-02-14T04:44:05.424Z,18.13
2023-02-14T04:46:32.638Z,16.00
2023-02-14T04:48:59.795Z,18.38
2023-02-14T04:51:27.682Z,16.02
2023-02-14T04:53:54.984Z,17.33
2023-02-14T04:56:22.160Z,17.15
2023-02-14T04:58:49.365Z,17.83
2023-02-14T05:01:16.488Z,16.25
2023-02-14T05:03:43.655Z,16.90
2023-02-14T05:06:10.831Z,15.70
2023-02-14T05:08:37.976Z,16.08
2023-02-14T05:11:05.275Z,16.45
2023-02-14T05:13:32.477Z,15.93
2023-02-14T05:16:00.069Z,16.23
2023-02-14T05:18:27.842Z,15.10
2023-02-14T05:20:55.815Z,17.42
2023-02-14T05:23:23.328Z,16.42
2023-02-14T05:25:51.616Z,14.68
2023-02-14T05:28:19.400Z,15.98
2023-02-14T05:30:47.346Z,15.13
2023-02-14T05:33:14.493Z,15.43
2023-02-14T05:35:41.712Z,15.18
2023-02-14T05:38:08.913Z,15.88
2023-02-14T05:40:36.141Z,16.20
2023-02-14T05:43:03.431Z,16.27
2023-02-14T05:45:30.652Z,16.17
2023-02-14T05:47:58.045Z,14.90
2023-02-14T05:50:25.322Z,16.02
2023-02-14T05:52:54.580Z,15.98
2023-02-14T05:55:21.770Z,17.33
2023-02-14T05:57:48.961Z,15.88
2023-02-14T06:00:16.440Z,16.92
2023-02-14T06:02:43.661Z,15.80
2023-02-14T06:05:10.845Z,14.18
2023-02-14T06:07:38.017Z,17.02
2023-02-14T06:10:05.293Z,16.25
2023-02-14T06:12:32.507Z,15.77
2023-02-14T06:14:59.674Z,16.75
2023-02-14T06:17:26.786Z,16.85
2023-02-14T06:19:53.966Z,16.88
2023-02-14T06:22:21.452Z,14.10
2023-02-14T06:24:48.626Z,16.52
2023-02-14T06:27:15.796Z,16.25
2023-02-14T06:29:42.901Z,16.98
2023-02-14T06:32:10.204Z,15.75
2023-02-14T06:34:37.474Z,16.50
2023-02-14T06:37:04.600Z,15.40
2023-02-14T06:39:31.712Z,16.08
2023-02-14T06:41:58.839Z,14.35
2023-02-14T06:44:25.958Z,15.32
2023-02-14T06:46:53.152Z,14.63
2023-02-14T06:49:20.316Z,15.15
2023-02-14T06:51:47.837Z,14.77
2023-02-14T06:54:15.036Z,15.15
2023-02-14T06:56:42.209Z,15.68
2023-02-14T06:59:09.350Z,15.30
2023-02-14T07:01:36.618Z,15.27
2023-02-14T07:04:03.835Z,18.02
2023-02-14T07:06:31.442Z,17.05
2023-02-14T07:08:58.647Z,14.48
2023-02-14T07:11:26.337Z,13.52
2023-02-14T07:13:53.622Z,13.98
2023-02-14T07:16:20.826Z,14.70
2023-02-14T07:18:48.134Z,14.15
2023-02-14T07:21:15.275Z,16.30
2023-02-14T07:23:44.557Z,14.30
2023-02-14T07:26:11.675Z,14.40
2023-02-14T07:28:38.801Z,13.50
2023-02-14T07:31:06.208Z,11.50
2023-02-14T07:33:33.489Z,14.80
2023-02-14T07:36:04.634Z,15.30
2023-02-14T07:38:31.816Z,15.45
2023-02-14T07:40:59.409Z,13.48
2023-02-14T07:43:26.989Z,14.32
2023-02-14T07:45:54.380Z,14.70
2023-02-14T07:48:21.503Z,12.88
2023-02-14T07:50:49.103Z,13.32
2023-02-14T07:53:16.375Z,14.45
2023-02-14T07:55:43.604Z,14.65
2023-02-14T07:58:10.741Z,15.95
2023-02-14T08:00:38.079Z,15.45
2023-02-14T08:03:05.312Z,16.35
2023-02-14T08:05:32.425Z,14.25
2023-02-14T08:07:59.570Z,15.75
2023-02-14T08:10:26.744Z,31.67
2023-02-14T08:13:00.116Z,25.60
2023-02-14T08:15:47.495Z,20.90
2023-02-14T08:18:14.869Z,19.95
2023-02-14T08:20:42.121Z,19.58
2023-02-14T08:23:09.259Z,18.17
2023-02-14T08:25:36.509Z,17.20
2023-02-14T08:28:04.488Z,19.42
2023-02-14T08:30:32.356Z,18.60
2023-02-14T08:32:59.786Z,19.48
2023-02-14T08:35:27.092Z,18.08
2023-02-14T08:37:54.317Z,18.35
2023-02-14T08:40:21.600Z,18.20
2023-02-14T08:42:48.739Z,18.35
2023-02-14T08:45:15.918Z,19.05
2023-02-14T08:47:43.109Z,21.48
2023-02-14T08:50:11.881Z,19.77
2023-02-14T08:52:43.835Z,21.52
2023-02-14T08:55:12.387Z,19.60
2023-02-14T08:57:39.778Z,22.00
2023-02-14T09:00:07.462Z,21.73
2023-02-14T09:02:34.722Z,21.15
2023-02-14T09:05:02.068Z,21.65
2023-02-14T09:07:29.267Z,20.15
2023-02-14T09:09:56.522Z,21.23
2023-02-14T09:12:23.702Z,21.15
2023-02-14T09:14:52.982Z,20.88
2023-02-14T09:17:23.344Z,21.58
2023-02-14T09:19:50.845Z,21.85
2023-02-14T09:22:20.311Z,22.70
2023-02-14T09:24:47.473Z,23.10
2023-02-14T09:27:14.766Z,23.20
2023-02-14T09:29:42.058Z,22.30
2023-02-14T09:32:10.208Z,21.35
2023-02-14T09:34:56.046Z,21.92
2023-02-14T09:37:23.299Z,22.25
2023-02-14T09:39:50.597Z,18.92
2023-02-14T09:42:24.299Z,21.77
2023-02-14T09:44:56.485Z,21.95
2023-02-14T09:47:26.975Z,21.52
2023-02-14T09:49:55.710Z,21.20
2023-02-14T09:52:27.025Z,19.83
2023-02-14T09:54:58.373Z,21.27
2023-02-14T09:57:34.045Z,20.77
2023-02-14T10:00:11.169Z,21.25
2023-02-14T10:02:54.505Z,21.23
2023-02-14T10:05:27.547Z,21.60
2023-02-14T10:07:57.920Z,22.17
2023-02-14T10:10:31.939Z,21.63
2023-02-14T10:13:06.549Z,20.63
2023-02-14T10:15:42.080Z,19.45
2023-02-14T10:18:23.097Z,20.45
2023-02-14T10:20:57.556Z,20.13
2023-02-14T10:23:28.266Z,20.33
2023-02-14T10:26:09.281Z,19.55
2023-02-14T10:28:40.149Z,20.08
2023-02-14T10:31:26.011Z,20.13
2023-02-14T10:34:22.645Z,18.00
2023-02-14T10:36:49.814Z,18.85
2023-02-14T10:39:47.942Z,19.00
2023-02-14T10:42:17.722Z,19.20
2023-02-14T10:45:05.592Z,18.90
2023-02-14T10:47:45.075Z,20.27
2023-02-14T10:50:19.403Z,17.75
2023-02-14T10:53:01.293Z,17.80
2023-02-14T10:55:50.695Z,18.23
2023-02-14T10:58:20.809Z,19.75
2023-02-14T11:00:52.326Z,21.27
2023-02-14T11:03:19.574Z,20.52
2023-02-14T11:05:48.326Z,18.70
2023-02-14T11:08:31.552Z,20.95
2023-02-14T11:11:24.240Z,17.55
2023-02-14T11:13:51.252Z,16.85
2023-02-14T11:16:37.456Z,19.15
2023-02-14T11:19:21.382Z,19.70
2023-02-14T11:21:50.706Z,16.67
2023-02-14T11:24:20.070Z,19.23
2023-02-14T11:26:49.998Z,19.65
2023-02-14T11:29:24.859Z,17.23
2023-02-14T11:31:52.343Z,19.55
2023-02-14T11:34:31.481Z,17.80
2023-02-14T11:36:58.713Z,18.75
2023-02-14T11:39:26.118Z,19.00
2023-02-14T11:41:56.268Z,18.20
2023-02-14T11:44:26.315Z,17.95
2023-02-14T11:46:55.843Z,15.48
2023-02-14T11:49:35.082Z,19.23
2023-02-14T11:52:10.773Z,19.10
2023-02-14T11:54:40.426Z,18.67
2023-02-14T11:59:47.373Z,16.55
2023-02-14T12:02:37.896Z,19.50
2023-02-14T12:05:26.672Z,19.60
2023-02-14T12:07:57.503Z,18.10
2023-02-14T12:10:26.356Z,19.70
2023-02-14T12:12:53.653Z,17.98
2023-02-14T12:15:25.886Z,19.27
2023-02-14T12:18:18.223Z,18.88
2023-02-14T12:21:36.781Z,16.98
2023-02-14T12:24:20.509Z,17.73
2023-02-14T12:27:06.549Z,17.95
2023-02-14T12:29:44.977Z,19.15
2023-02-14T12:32:23.354Z,18.63
2023-02-14T12:34:51.716Z,18.77
2023-02-14T12:37:41.268Z,18.27
2023-02-14T12:40:17.052Z,17.65
2023-02-14T12:42:59.398Z,18.35
2023-02-14T12:45:29.171Z,16.92
2023-02-14T12:47:56.469Z,17.42
2023-02-14T12:50:50.528Z,16.75
2023-02-14T12:53:38.284Z,18.45
2023-02-14T12:56:37.591Z,18.70
2023-02-14T12:59:40.781Z,15.85
2023-02-14T13:02:32.745Z,18.55
2023-02-14T13:05:20.208Z,17.70
2023-02-14T13:08:11.116Z,18.67
2023-02-14T13:10:38.200Z,18.05
2023-02-14T13:13:27.505Z,13.27
2023-02-14T13:16:21.660Z,16.73
2023-02-14T13:19:29.849Z,16.67
2023-02-14T13:21:59.695Z,18.55
2023-02-14T13:24:31.988Z,17.55
2023-02-14T13:27:03.414Z,17.15
2023-02-14T13:29:34.496Z,18.00
2023-02-14T13:32:02.851Z,16.77
2023-02-14T13:34:39.134Z,18.08
2023-02-14T13:37:08.758Z,16.02
2023-02-14T13:39:38.759Z,16.77
2023-02-14T13:42:07.229Z,16.33
2023-02-14T13:44:43.252Z,17.20
2023-02-14T13:47:18.327Z,15.38
2023-02-14T13:49:50.850Z,15.93
2023-02-14T13:52:37.059Z,16.52
2023-02-14T13:55:06.817Z,15.60
2023-02-14T13:57:40.841Z,17.73
2023-02-14T14:00:17.600Z,18.02
2023-02-14T14:02:56.170Z,16.83
2023-02-14T14:05:32.742Z,14.65
2023-02-14T14:08:23.487Z,15.00
2023-02-14T14:11:01.243Z,16.45
2023-02-14T14:13:51.826Z,14.38
2023-02-14T14:16:28.184Z,14.48
2023-02-14T14:19:19.235Z,15.93
2023-02-14T14:22:01.248Z,14.82
2023-02-14T14:24:47.813Z,16.95
2023-02-14T14:27:24.072Z,15.52
2023-02-14T14:43:49.731Z,8.93
2023-02-14T14:46:18.198Z,15.38
2023-02-14T14:48:49.285Z,16.90
2023-02-14T14:51:20.263Z,16.17
2023-02-14T14:53:49.408Z,16.35
2023-02-14T14:56:49.967Z,14.57
2023-02-14T14:59:28.843Z,16.20
2023-02-14T15:02:00.340Z,15.93
2023-02-14T15:04:32.983Z,16.08
2023-02-14T15:07:22.766Z,16.85
2023-02-14T15:09:52.546Z,16.10
2023-02-14T15:12:40.621Z,16.80
2023-02-14T15:15:10.202Z,16.98
2023-02-14T15:17:37.858Z,16.35
2023-02-14T15:20:07.757Z,16.35
2023-02-14T15:22:48.887Z,16.58
2023-02-14T15:25:32.107Z,16.58
2023-02-14T15:27:59.714Z,16.75
2023-02-14T15:30:30.983Z,14.73
2023-02-14T15:32:58.671Z,15.95
2023-02-14T15:35:27.316Z,16.80
2023-02-14T15:37:55.521Z,17.88
2023-02-14T15:40:25.263Z,16.55
2023-02-14T15:42:57.638Z,15.80
2023-02-14T15:45:28.271Z,17.20
2023-02-14T15:47:56.695Z,19.23
2023-02-14T15:50:34.444Z,17.70
2023-02-14T15:53:05.398Z,16.55
2023-02-14T15:55:33.318Z,17.20
2023-02-14T15:58:02.542Z,16.45
2023-02-14T16:00:39.307Z,16.63
2023-02-14T16:03:12.125Z,17.60
2023-02-14T16:05:38.917Z,17.00
2023-02-14T16:08:07.924Z,17.02
2023-02-14T16:10:39.194Z,18.90
2023-02-14T16:13:09.787Z,16.77
2023-02-14T16:15:38.895Z,16.02
2023-02-14T16:18:18.517Z,17.33
2023-02-14T16:20:48.750Z,16.42
2023-02-14T16:25:44.368Z,16.42
2023-02-14T16:28:11.677Z,15.50
2023-02-14T16:30:39.482Z,16.25
2023-02-14T16:33:07.829Z,15.55
2023-02-14T16:35:37.468Z,15.63
2023-02-14T16:38:04.678Z,16.10
2023-02-14T16:40:32.294Z,14.98
2023-02-14T16:43:00.782Z,15.02
2023-02-14T16:45:35.946Z,14.02
2023-02-14T16:48:04.428Z,15.15
2023-02-14T16:50:32.540Z,14.45
2023-02-14T16:52:59.829Z,15.57
2023-02-14T16:55:30.009Z,13.93
2023-02-14T16:57:58.278Z,22.42
2023-02-14T17:00:27.458Z,15.43
2023-02-14T17:03:06.014Z,15.93
2023-02-14T17:05:33.599Z,15.27
2023-02-14T17:08:01.834Z,15.40
2023-02-14T17:10:30.009Z,15.57
2023-02-14T17:12:58.984Z,15.57
2023-02-14T17:15:26.720Z,13.93
2023-02-14T17:17:57.520Z,13.85
2023-02-14T17:20:24.908Z,13.38
2023-02-14T17:22:52.180Z,14.23
2023-02-14T17:25:19.432Z,13.52
2023-02-14T17:27:46.673Z,14.43
2023-02-14T17:30:14.693Z,21.38
2023-02-14T17:32:42.394Z,20.80
2023-02-14T17:35:09.722Z,19.25
2023-02-14T17:37:37.701Z,15.93
2023-02-14T17:40:05.912Z,16.15
2023-02-14T17:42:33.684Z,15.40
2023-02-14T17:45:01.019Z,14.90
2023-02-14T17:47:29.463Z,13.45
2023-02-14T17:49:57.596Z,13.90
2023-02-14T17:52:25.183Z,14.55
2023-02-14T17:54:52.486Z,14.43
2023-02-14T17:57:20.469Z,13.98
2023-02-14T17:59:47.748Z,14.30
2023-02-14T18:02:15.088Z,13.93
2023-02-14T18:04:42.406Z,15.02
2023-02-14T18:07:09.670Z,13.95
2023-02-14T18:09:36.929Z,14.10
2023-02-14T18:12:04.354Z,14.80
2023-02-14T18:14:31.685Z,14.18
2023-02-14T18:16:58.875Z,14.73
2023-02-14T18:19:26.099Z,14.32
2023-02-14T18:21:53.497Z,15.77
2023-02-14T18:24:21.007Z,14.43
2023-02-14T18:26:48.361Z,14.68
2023-02-14T18:29:15.520Z,22.23
2023-02-14T18:31:43.869Z,19.67
2023-02-14T18:34:11.505Z,23.20
2023-02-14T18:36:40.098Z,24.88
2023-02-14T18:39:07.511Z,17.20
2023-02-14T18:41:34.803Z,19.30
2023-02-14T18:44:02.298Z,17.05
2023-02-14T18:46:35.299Z,17.65
2023-02-14T18:49:03.420Z,17.10
2023-02-14T18:51:31.910Z,18.67
2023-02-14T18:54:00.112Z,16.17
2023-02-14T18:56:31.808Z,16.60
2023-02-14T18:59:00.488Z,17.90
2023-02-14T19:01:29.329Z,18.45
2023-02-14T19:03:57.170Z,19.77
2023-02-14T19:06:24.438Z,19.30
2023-02-14T19:08:51.571Z,18.92
2023-02-14T19:11:26.371Z,15.95
2023-02-14T19:13:55.156Z,16.42
2023-02-14T19:16:33.356Z,15.60
2023-02-14T19:19:02.577Z,16.05
2023-02-14T19:21:31.745Z,16.42
2023-02-14T19:23:59.177Z,14.85
2023-02-14T19:26:28.108Z,14.90
2023-02-14T19:28:56.827Z,16.88
2023-02-14T19:31:24.705Z,13.30
2023-02-14T19:33:52.594Z,16.52
2023-02-14T19:36:21.186Z,16.35
2023-02-14T19:38:50.258Z,16.80
2023-02-14T19:41:21.817Z,15.07
2023-02-14T19:43:51.343Z,18.58
2023-02-14T19:46:19.709Z,18.17
2023-02-14T19:48:47.338Z,17.60
2023-02-14T19:51:34.093Z,19.10
2023-02-14T19:54:02.200Z,19.33
2023-02-14T19:56:31.280Z,18.65
2023-02-14T19:58:58.903Z,19.30
2023-02-14T20:01:36.854Z,20.67
2023-02-14T20:04:04.952Z,20.67
2023-02-14T20:06:32.257Z,19.67
2023-02-14T20:08:59.989Z,21.05
2023-02-14T20:11:33.232Z,21.38
2023-02-14T20:14:00.877Z,22.15
2023-02-14T20:16:29.122Z,21.10
2023-02-14T20:18:56.371Z,23.00
2023-02-14T20:21:25.514Z,20.30
2023-02-14T20:23:52.960Z,18.35
2023-02-14T20:26:20.310Z,19.35
2023-02-14T20:28:48.992Z,19.63
2023-02-14T20:31:19.402Z,19.92
2023-02-14T20:33:47.695Z,21.73
2023-02-14T20:36:15.101Z,19.77
2023-02-14T20:38:42.513Z,22.83
2023-02-14T20:41:10.946Z,23.70
2023-02-14T20:43:38.982Z,19.80
2023-02-14T20:46:07.079Z,26.42
2023-02-14T20:48:35.016Z,28.00
2023-02-14T20:51:21.007Z,25.23
2023-02-14T20:53:48.563Z,24.20
2023-02-14T20:56:16.566Z,25.23
2023-02-14T20:58:43.944Z,23.92
2023-02-14T21:01:15.653Z,23.40
2023-02-14T21:03:43.622Z,14.65
2023-02-14T21:06:14.262Z,16.75
2023-02-14T21:11:10.555Z,18.30
2023-02-14T21:13:38.120Z,17.10
2023-02-14T21:16:09.412Z,17.10
2023-02-14T21:18:37.701Z,19.38
2023-02-14T21:21:09.502Z,16.33
2023-02-14T21:23:36.727Z,16.08
2023-02-14T21:26:04.286Z,18.08
2023-02-14T21:28:31.512Z,17.15
2023-02-14T21:31:06.214Z,16.35
2023-02-14T21:33:33.600Z,17.52
2023-02-14T21:36:10.042Z,16.60
2023-02-14T21:38:37.664Z,18.08
2023-02-14T21:41:06.060Z,16.77
2023-02-14T21:43:37.713Z,17.25
2023-02-14T21:46:05.817Z,18.08
2023-02-14T21:48:54.754Z,17.83
2023-02-14T21:51:22.485Z,18.38
2023-02-14T21:53:50.396Z,18.33
2023-02-14T21:56:19.813Z,20.58
2023-02-14T21:58:47.972Z,20.80
2023-02-14T22:01:16.721Z,21.92
2023-02-14T22:03:44.392Z,18.95
2023-02-14T22:06:13.915Z,20.52
2023-02-14T22:08:45.581Z,20.30
2023-02-14T22:11:14.674Z,21.05
2023-02-14T22:13:51.654Z,20.20
2023-02-14T22:16:20.297Z,20.55
2023-02-14T22:18:48.370Z,21.85
2023-02-14T22:21:17.093Z,18.67
2023-02-14T22:23:44.635Z,19.58
2023-02-14T22:26:13.521Z,19.38
2023-02-14T22:28:41.784Z,20.15
2023-02-14T22:31:10.250Z,19.95
2023-02-14T22:33:39.572Z,20.48
2023-02-14T22:36:08.943Z,19.20
2023-02-14T22:38:36.606Z,16.45
2023-02-14T22:41:08.312Z,17.80
2023-02-14T22:43:35.951Z,20.67
2023-02-14T22:46:04.879Z,20.05
2023-02-14T22:48:32.803Z,20.45
2023-02-14T22:51:07.107Z,23.00
2023-02-14T22:53:34.318Z,22.15
2023-02-14T22:56:09.745Z,23.33
2023-02-14T22:58:37.271Z,22.50
2023-02-14T23:01:06.167Z,23.60
2023-02-14T23:03:54.002Z,23.77
2023-02-14T23:06:24.221Z,23.65
2023-02-14T23:08:54.938Z,23.25
2023-02-14T23:11:28.981Z,23.08
2023-02-14T23:14:15.500Z,22.35
2023-02-14T23:17:02.692Z,23.48
2023-02-14T23:19:59.548Z,22.35
2023-02-14T23:38:36.227Z,21.75
2023-02-14T23:41:34.858Z,23.00
